North Bend, OR

2:37 PM PST on February 27, 2015 (GMT -0800)
Edd Family | Change Station
CLOSE
Current Station
Personal Weather Station
Location: North Bend, OR
Elevation: 120 ft
Nearby Weather Stations

Elev 120 ft 43.40 °N, 124.25 °W | Updated 4 seconds ago

Overcast
Overcast
55.8 °F
Feels Like 55.8 °F
N
6.3
Wind Variable Wind from West
Gusts 11.0 mph

Today
High -- | Low -- °F
--% Chance of Precip.
Yesterday
High -- | Low -- °F
Precip. -- in
6:56 AM 6:03 PM
Waxing Gibbous, 72% visible
Pressure 29.78 in
Visibility 10.0 miles
Clouds Few 1600 ft
Scattered Clouds 4400 ft
Overcast 6000 ft
Dew Point 50 °F
Humidity 80%
Rainfall 0.13 in
Snow Depth Not available.
UV 1 out of 12
Pollen .60 out of 12
Air Quality Not available.
Flu Activity Not available.
METAR KOTH 272215Z 28014KT 10SM FEW016 SCT044 OVC060 11/09 A2978 RMK AO1 VCSH

More Conditions Fewer Conditions

Pressure 29.78 in
Visibility 10.0 miles
Clouds Few 1600 ft
Scattered Clouds 4400 ft
Overcast 6000 ft
Dew Point 50 °F
Humidity 80%
Rainfall 0.13 in
Snow Depth Not available.
UV 1 out of 12
Pollen .60 out of 12
Air Quality Not available.
Flu Activity Not available.
METAR KOTH 272215Z 28014KT 10SM FEW016 SCT044 OVC060 11/09 A2978 RMK AO1 VCSH

More Conditions Fewer Conditions

10-Day Weather Forecast

Almanac

Astronomy

Feb. 27, 2015 Rise Set
Actual Time
Civil Twilight
Nautical Twilight
Astronomical Twilight
Moon
Length of Visible Light
Length of Day
Tomorrow will be .
, % of the Moon is Illuminated

Today's Extremes

State Highs State Lows

Community

WunderPhotos

Upload Photos

1,800,852 photos uploaded!

WunderBlogs® & News

Nearby

Air Quality

  Air Quality AQ Index Pollutant
Not available.

Snow Depth

Station Depth Elevation

Earthquake Activity

City Distance Mag. Time & Date
Minimum magnitude displayed is 2.5.

Coastal Water Temperatures

Place Temperature

Nearby Weather Stations